createdAt,value
2018-11-23T00:00:19.572Z,16.40
2018-11-23T00:02:48.754Z,15.40
2018-11-23T00:05:17.399Z,17.53
2018-11-23T00:07:46.182Z,16.60
2018-11-23T00:10:16.006Z,16.23
2018-11-23T00:12:44.680Z,16.47
2018-11-23T00:15:15.278Z,15.07
2018-11-23T00:17:43.801Z,16.10
2018-11-23T00:20:18.464Z,15.30
2018-11-23T00:22:46.963Z,13.50
2018-11-23T00:25:17.691Z,14.17
2018-11-23T00:27:46.237Z,13.80
2018-11-23T00:30:18.656Z,15.57
2018-11-23T00:32:47.493Z,13.70
2018-11-23T00:35:17.949Z,15.63
2018-11-23T00:37:46.920Z,14.63
2018-11-23T00:40:20.945Z,15.63
2018-11-23T00:42:49.929Z,13.80
2018-11-23T00:45:18.438Z,14.90
2018-11-23T00:47:47.620Z,13.80
2018-11-23T00:50:17.311Z,15.40
2018-11-23T00:52:46.355Z,14.70
2018-11-23T00:55:16.063Z,14.03
2018-11-23T00:57:44.550Z,14.90
2018-11-23T01:00:18.265Z,14.23
2018-11-23T01:02:46.808Z,14.20
2018-11-23T01:05:16.719Z,13.73
2018-11-23T01:07:46.425Z,14.17
2018-11-23T01:10:16.499Z,14.20
2018-11-23T01:12:46.184Z,14.53
2018-11-23T01:15:14.776Z,13.83
2018-11-23T01:17:43.232Z,14.90
2018-11-23T01:20:15.135Z,13.80
2018-11-23T01:22:43.737Z,14.00
2018-11-23T01:25:13.252Z,14.27
2018-11-23T01:27:42.784Z,13.70
2018-11-23T01:30:20.753Z,13.53
2018-11-23T01:32:49.279Z,11.30
2018-11-23T01:35:17.770Z,12.30
2018-11-23T01:37:46.381Z,12.80
2018-11-23T01:40:19.305Z,13.23
2018-11-23T01:42:48.128Z,12.00
2018-11-23T01:45:16.816Z,11.20
2018-11-23T01:47:45.312Z,11.93
2018-11-23T01:50:16.148Z,12.50
2018-11-23T01:52:45.822Z,13.07
2018-11-23T01:55:15.011Z,15.43
2018-11-23T01:57:44.066Z,12.40
2018-11-23T02:00:19.287Z,14.90
2018-11-23T02:02:48.963Z,15.37
2018-11-23T02:05:17.450Z,14.73
2018-11-23T02:07:46.225Z,11.90
2018-11-23T02:10:16.102Z,13.90
2018-11-23T02:12:44.608Z,13.33
2018-11-23T02:15:16.046Z,13.13
2018-11-23T02:17:44.670Z,13.80
2018-11-23T02:20:14.509Z,14.00
2018-11-23T02:22:43.338Z,14.30
2018-11-23T02:25:11.841Z,13.40
2018-11-23T02:27:40.378Z,14.13
2018-11-23T02:30:16.396Z,13.57
2018-11-23T02:32:45.035Z,14.87
2018-11-23T02:35:14.120Z,13.87
2018-11-23T02:37:42.628Z,13.90
2018-11-23T02:40:13.437Z,14.40
2018-11-23T02:42:41.973Z,14.73
2018-11-23T02:45:13.050Z,13.03
2018-11-23T02:47:42.678Z,13.70
2018-11-23T02:50:11.651Z,14.20
2018-11-23T02:52:40.859Z,11.83
2018-11-23T02:55:10.463Z,13.63
2018-11-23T02:57:38.978Z,14.30
2018-11-23T03:00:13.166Z,14.07
2018-11-23T03:02:41.696Z,13.13
2018-11-23T03:05:12.438Z,13.27
2018-11-23T03:07:41.246Z,14.17
2018-11-23T03:10:11.185Z,13.87
2018-11-23T03:12:40.273Z,13.37
2018-11-23T03:15:10.480Z,14.33
2018-11-23T03:17:38.982Z,13.90
2018-11-23T03:20:09.983Z,13.10
2018-11-23T03:22:38.545Z,13.83
2018-11-23T03:25:07.557Z,15.97
2018-11-23T03:27:36.089Z,14.57
2018-11-23T03:30:07.956Z,15.50
2018-11-23T03:32:36.456Z,15.60
2018-11-23T03:35:05.505Z,15.30
2018-11-23T03:37:33.963Z,14.50
2018-11-23T03:40:02.489Z,15.03
2018-11-23T03:42:30.963Z,14.13
2018-11-23T03:44:59.431Z,16.40
2018-11-23T03:47:30.031Z,14.97
2018-11-23T03:49:58.460Z,13.93
2018-11-23T03:52:26.936Z,15.07
2018-11-23T03:54:55.567Z,15.63
2018-11-23T03:57:24.030Z,14.87
2018-11-23T03:59:52.536Z,15.13
2018-11-23T04:02:21.035Z,15.27
2018-11-23T04:04:49.502Z,16.50
2018-11-23T04:07:18.035Z,14.90
2018-11-23T04:09:46.528Z,16.70
2018-11-23T04:12:15.162Z,15.17
2018-11-23T04:14:43.902Z,14.10
2018-11-23T04:17:12.407Z,13.90
2018-11-23T04:19:40.873Z,14.63
2018-11-23T04:22:09.347Z,13.73
2018-11-23T04:24:37.886Z,14.80
2018-11-23T04:27:06.551Z,14.87
2018-11-23T04:29:35.012Z,15.90
2018-11-23T04:32:03.652Z,15.47
2018-11-23T04:34:32.144Z,15.30
2018-11-23T04:37:01.681Z,15.97
2018-11-23T04:39:30.132Z,15.33
2018-11-23T04:41:58.622Z,13.37
2018-11-23T04:44:27.108Z,13.43
2018-11-23T04:46:55.593Z,15.00
2018-11-23T04:49:24.332Z,15.20
2018-11-23T04:51:52.780Z,15.20
2018-11-23T04:54:21.244Z,13.80
2018-11-23T04:56:49.710Z,13.67
2018-11-23T04:59:18.178Z,13.93
2018-11-23T05:01:46.671Z,13.63
2018-11-23T05:04:15.525Z,13.33
2018-11-23T05:06:44.020Z,12.60
2018-11-23T05:09:12.484Z,14.67
2018-11-23T05:11:40.974Z,14.23
2018-11-23T05:14:10.738Z,13.87
2018-11-23T05:16:39.533Z,12.80
2018-11-23T05:19:08.033Z,11.70
2018-11-23T05:21:36.532Z,13.93
2018-11-23T05:24:05.258Z,12.40
2018-11-23T05:26:33.748Z,13.07
2018-11-23T05:29:02.227Z,13.53
2018-11-23T05:31:30.730Z,12.17
2018-11-23T05:33:59.275Z,12.60
2018-11-23T05:36:27.766Z,12.70
2018-11-23T05:38:56.249Z,12.03
2018-11-23T05:41:24.875Z,13.83
2018-11-23T05:43:53.369Z,13.40
2018-11-23T05:46:21.872Z,13.10
2018-11-23T05:48:50.425Z,14.13
2018-11-23T05:51:18.994Z,15.00
2018-11-23T05:53:47.440Z,16.27
2018-11-23T05:56:15.903Z,14.80
2018-11-23T05:58:44.392Z,13.83
2018-11-23T06:01:12.967Z,13.60
2018-11-23T06:03:41.434Z,13.50
2018-11-23T06:06:09.901Z,14.80
2018-11-23T06:08:39.466Z,13.73
2018-11-23T06:11:08.246Z,11.17
2018-11-23T06:13:36.813Z,13.13
2018-11-23T06:16:05.434Z,12.63
2018-11-23T06:18:34.051Z,12.93
2018-11-23T06:21:02.533Z,13.27
2018-11-23T06:23:31.041Z,14.93
2018-11-23T06:26:05.780Z,16.67
2018-11-23T06:28:34.260Z,16.97
2018-11-23T06:31:02.848Z,15.87
2018-11-23T06:33:35.216Z,14.03
2018-11-23T06:36:03.766Z,14.87
2018-11-23T06:38:32.267Z,14.30
2018-11-23T06:41:00.831Z,16.07
2018-11-23T06:43:29.345Z,15.67
2018-11-23T06:45:58.925Z,13.33
2018-11-23T06:48:27.393Z,14.87
2018-11-23T06:50:56.001Z,15.00
2018-11-23T06:53:24.481Z,15.73
2018-11-23T06:55:53.471Z,15.37
2018-11-23T06:58:22.145Z,17.30
2018-11-23T07:00:50.664Z,15.63
2018-11-23T07:03:19.117Z,15.60
2018-11-23T07:05:47.604Z,15.40
2018-11-23T07:08:16.146Z,16.17
2018-11-23T07:10:44.646Z,16.93
2018-11-23T07:13:13.437Z,16.33
2018-11-23T07:15:41.991Z,15.87
2018-11-23T07:18:10.678Z,15.57
2018-11-23T07:20:39.175Z,17.27
2018-11-23T07:23:07.889Z,15.53
2018-11-23T07:25:36.575Z,14.90
2018-11-23T07:28:05.158Z,16.53
2018-11-23T07:30:33.658Z,16.77
2018-11-23T07:33:02.266Z,15.93
2018-11-23T07:35:30.852Z,16.70
2018-11-23T07:37:59.321Z,16.67
2018-11-23T07:40:41.147Z,15.57
2018-11-23T07:43:09.849Z,19.80
2018-11-23T07:45:38.438Z,17.50
2018-11-23T07:48:07.410Z,17.90
2018-11-23T07:50:36.413Z,21.10
2018-11-23T07:53:05.083Z,22.00
2018-11-23T07:55:33.586Z,25.70
2018-11-23T07:58:02.252Z,26.73
2018-11-23T08:00:30.978Z,19.00
2018-11-23T08:02:59.477Z,18.33
2018-11-23T08:05:27.993Z,18.57
2018-11-23T08:07:56.688Z,20.97
2018-11-23T08:10:24.367Z,19.53
2018-11-23T08:12:53.225Z,19.80
2018-11-23T08:15:23.169Z,19.73
2018-11-23T08:17:51.643Z,21.30
2018-11-23T08:20:21.455Z,20.37
2018-11-23T08:22:50.042Z,20.20
2018-11-23T08:25:19.860Z,19.30
2018-11-23T08:27:49.393Z,20.20
2018-11-23T08:30:21.263Z,18.77
2018-11-23T08:32:49.781Z,20.83
2018-11-23T08:35:18.317Z,20.27
2018-11-23T08:37:46.936Z,18.97
2018-11-23T08:40:19.759Z,19.90
2018-11-23T08:42:49.176Z,20.07
2018-11-23T08:45:19.720Z,20.00
2018-11-23T08:47:48.288Z,19.27
2018-11-23T08:50:22.362Z,19.50
2018-11-23T08:52:50.877Z,20.40
2018-11-23T08:55:19.849Z,21.80
2018-11-23T08:57:48.743Z,19.73
2018-11-23T09:00:23.647Z,20.90
2018-11-23T09:02:56.472Z,21.57
2018-11-23T09:05:25.891Z,21.07
2018-11-23T09:07:55.418Z,21.00
2018-11-23T09:10:25.554Z,21.50
2018-11-23T09:12:56.577Z,20.80
2018-11-23T09:15:25.419Z,19.30
2018-11-23T09:17:54.211Z,19.00
2018-11-23T09:20:22.798Z,19.63
2018-11-23T09:22:51.594Z,19.20
2018-11-23T09:25:21.968Z,20.00
2018-11-23T09:27:50.509Z,19.43
2018-11-23T09:30:20.465Z,19.00
2018-11-23T09:32:49.883Z,17.20
2018-11-23T09:35:18.423Z,18.73
2018-11-23T09:37:47.420Z,18.37
2018-11-23T09:40:18.397Z,18.23
2018-11-23T09:42:47.035Z,19.37
2018-11-23T09:45:18.536Z,17.70
2018-11-23T09:47:48.307Z,18.23
2018-11-23T09:50:18.344Z,17.50
2018-11-23T09:52:47.960Z,18.67
2018-11-23T09:55:16.720Z,18.00
2018-11-23T09:57:45.213Z,18.77
2018-11-23T10:00:17.071Z,17.93
2018-11-23T10:02:46.382Z,18.80
2018-11-23T10:05:15.596Z,15.97
2018-11-23T10:07:45.643Z,18.47
2018-11-23T10:10:15.278Z,17.70
2018-11-23T10:12:44.109Z,18.20
2018-11-23T10:15:14.143Z,18.00
2018-11-23T10:17:42.756Z,19.80
2018-11-23T10:20:14.024Z,19.70
2018-11-23T10:22:42.660Z,20.40
2018-11-23T10:25:13.457Z,19.13
2018-11-23T10:27:42.587Z,19.57
2018-11-23T10:30:13.888Z,17.73
2018-11-23T10:32:42.478Z,18.87
2018-11-23T10:35:11.454Z,19.00
2018-11-23T10:37:41.631Z,21.33
2018-11-23T10:40:15.568Z,19.60
2018-11-23T10:42:44.536Z,19.40
2018-11-23T10:45:16.116Z,18.93
2018-11-23T10:47:44.842Z,17.93
2018-11-23T10:50:15.539Z,20.33
2018-11-23T10:52:44.174Z,19.57
2018-11-23T10:55:16.094Z,19.10
2018-11-23T10:57:44.630Z,20.83
2018-11-23T11:00:20.809Z,20.80
2018-11-23T11:02:57.189Z,21.37
2018-11-23T11:05:28.992Z,23.43
2018-11-23T11:08:01.291Z,18.97
2018-11-23T11:10:29.780Z,21.50
2018-11-23T11:12:58.548Z,19.50
2018-11-23T11:15:27.120Z,20.17
2018-11-23T11:17:55.626Z,21.07
2018-11-23T11:20:24.191Z,20.10
2018-11-23T11:22:52.710Z,17.63
2018-11-23T11:25:22.219Z,18.27
2018-11-23T11:27:51.335Z,18.93
2018-11-23T11:30:20.364Z,18.37
2018-11-23T11:32:49.507Z,19.50
2018-11-23T11:35:18.106Z,21.37
2018-11-23T11:37:46.596Z,19.20
2018-11-23T11:40:16.709Z,20.50
2018-11-23T11:42:45.536Z,20.43
2018-11-23T11:45:15.421Z,21.17
2018-11-23T11:47:44.454Z,21.23
2018-11-23T11:50:13.884Z,19.33
2018-11-23T11:52:43.599Z,19.07
2018-11-23T11:55:14.350Z,19.63
2018-11-23T11:57:43.400Z,19.50
2018-11-23T12:00:14.135Z,19.43
2018-11-23T12:02:42.829Z,19.40
2018-11-23T12:05:12.871Z,19.63
2018-11-23T12:07:42.304Z,20.47
2018-11-23T12:10:14.110Z,19.80
2018-11-23T12:12:42.860Z,19.90
2018-11-23T12:15:12.981Z,23.40
2018-11-23T12:17:41.995Z,21.45
2018-11-23T12:20:13.670Z,19.37
2018-11-23T12:22:43.913Z,18.07
2018-11-23T12:25:13.275Z,19.23
2018-11-23T12:27:42.540Z,20.70
2018-11-23T12:30:13.706Z,19.07
2018-11-23T12:32:43.436Z,19.23
2018-11-23T12:35:13.910Z,19.30
2018-11-23T12:37:43.491Z,18.73
2018-11-23T12:40:16.836Z,18.20
2018-11-23T12:42:46.233Z,18.40
2018-11-23T12:45:19.472Z,18.20
2018-11-23T12:47:48.030Z,18.10
2018-11-23T12:50:19.729Z,18.17
2018-11-23T12:52:48.294Z,19.37
2018-11-23T12:55:17.359Z,18.43
2018-11-23T12:57:45.901Z,16.53
2018-11-23T13:00:21.815Z,17.30
2018-11-23T13:02:52.673Z,20.13
2018-11-23T13:05:22.170Z,19.20
2018-11-23T13:07:53.324Z,17.93
2018-11-23T13:10:22.713Z,18.07
2018-11-23T13:12:51.526Z,16.93
2018-11-23T13:15:20.588Z,17.10
2018-11-23T13:17:49.631Z,17.50
2018-11-23T13:20:18.174Z,18.03
2018-11-23T13:22:46.868Z,17.20
2018-11-23T13:25:17.610Z,18.27
2018-11-23T13:27:46.262Z,17.50
2018-11-23T13:30:17.981Z,17.80
2018-11-23T13:32:46.544Z,18.55
2018-11-23T13:35:16.508Z,17.63
2018-11-23T13:37:45.368Z,17.70
2018-11-23T13:40:16.657Z,16.15
2018-11-23T13:42:45.740Z,17.20
2018-11-23T13:45:15.763Z,16.93
2018-11-23T13:47:44.550Z,16.67
2018-11-23T13:50:14.913Z,15.60
2018-11-23T13:52:44.499Z,14.60
2018-11-23T13:55:13.017Z,17.57
2018-11-23T13:57:41.556Z,18.90
2018-11-23T14:00:15.798Z,18.80
2018-11-23T14:02:44.981Z,16.60
2018-11-23T14:05:14.998Z,18.57
2018-11-23T14:07:44.714Z,15.40
2018-11-23T14:10:15.041Z,18.07
2018-11-23T14:12:44.125Z,17.65
2018-11-23T14:15:19.277Z,17.65
2018-11-23T14:17:49.014Z,17.30
2018-11-23T14:22:46.547Z,17.20
2018-11-23T14:25:17.547Z,17.30
2018-11-23T14:27:46.980Z,17.40
2018-11-23T14:30:18.323Z,16.25
2018-11-23T14:32:47.222Z,16.70
2018-11-23T14:35:18.868Z,18.93
2018-11-23T14:37:48.214Z,16.50
2018-11-23T14:40:17.374Z,16.45
2018-11-23T14:42:47.149Z,18.35
2018-11-23T14:45:19.398Z,17.85
2018-11-23T14:47:49.017Z,18.15
2018-11-23T14:50:19.985Z,17.93
2018-11-23T14:52:49.790Z,17.33
2018-11-23T14:55:19.527Z,16.43
2018-11-23T14:57:48.295Z,18.40
2018-11-23T15:00:19.717Z,19.47
2018-11-23T15:02:49.666Z,18.05
2018-11-23T15:05:19.909Z,17.80
2018-11-23T15:07:48.653Z,20.30
2018-11-23T15:10:18.593Z,19.00
2018-11-23T15:12:48.493Z,18.95
2018-11-23T15:15:18.472Z,18.75
2018-11-23T15:17:48.444Z,19.10
2018-11-23T15:20:19.262Z,20.00
2018-11-23T15:22:50.447Z,20.80
2018-11-23T15:25:19.141Z,21.30
2018-11-23T15:27:47.784Z,20.40
2018-11-23T15:30:22.426Z,20.17
2018-11-23T15:32:51.150Z,17.85
2018-11-23T15:35:19.906Z,21.50
2018-11-23T15:37:48.622Z,21.10
2018-11-23T15:40:21.097Z,21.43
2018-11-23T15:42:52.917Z,23.13
2018-11-23T15:45:24.526Z,21.30
2018-11-23T15:47:53.379Z,20.80
2018-11-23T15:50:25.217Z,22.43
2018-11-23T15:52:55.586Z,21.47
2018-11-23T15:55:27.366Z,22.80
2018-11-23T15:57:58.069Z,22.80
2018-11-23T16:00:29.791Z,23.45
2018-11-23T16:02:58.608Z,25.30
2018-11-23T16:05:29.594Z,23.23
2018-11-23T16:08:04.028Z,23.90
2018-11-23T16:10:34.553Z,25.03
2018-11-23T16:13:11.163Z,26.37
2018-11-23T16:15:34.259Z,23.80
2018-11-23T16:18:03.897Z,22.87
2018-11-23T16:23:27.303Z,25.10
2018-11-23T16:25:59.511Z,24.07
2018-11-23T16:28:29.433Z,24.90
2018-11-23T16:31:02.114Z,25.77
2018-11-23T16:33:34.493Z,28.45
2018-11-23T16:36:07.015Z,26.20
2018-11-23T16:38:38.378Z,24.95
2018-11-23T16:41:10.206Z,26.07
2018-11-23T16:43:40.319Z,24.60
2018-11-23T16:46:11.448Z,26.10
2018-11-23T16:48:40.212Z,27.30
2018-11-23T16:51:09.276Z,25.10
2018-11-23T16:53:38.353Z,27.17
2018-11-23T16:56:07.296Z,26.93
2018-11-23T16:58:35.897Z,25.90
2018-11-23T17:01:04.726Z,25.23
2018-11-23T17:03:33.336Z,27.27
2018-11-23T17:06:02.371Z,24.73
2018-11-23T17:08:31.127Z,27.80
2018-11-23T17:11:01.980Z,25.37
2018-11-23T17:13:32.032Z,25.53
2018-11-23T17:16:00.806Z,26.57
2018-11-23T17:18:29.849Z,26.90
2018-11-23T17:21:00.493Z,26.80
2018-11-23T17:23:29.322Z,27.90
2018-11-23T17:25:58.009Z,28.10
2018-11-23T17:28:26.552Z,27.60
2018-11-23T17:30:55.606Z,28.90
2018-11-23T17:33:24.247Z,27.60
2018-11-23T17:35:52.797Z,28.57
2018-11-23T17:38:21.867Z,30.53
2018-11-23T17:40:50.419Z,26.40
2018-11-23T17:43:19.011Z,25.83
2018-11-23T17:45:47.537Z,27.57
2018-11-23T17:48:16.712Z,28.37
2018-11-23T17:50:45.378Z,27.10
2018-11-23T17:53:14.026Z,27.63
2018-11-23T17:55:42.551Z,27.97
2018-11-23T17:58:11.127Z,28.57
2018-11-23T18:00:41.951Z,28.27
2018-11-23T18:03:10.507Z,28.70
2018-11-23T18:05:39.030Z,27.30
2018-11-23T18:08:07.735Z,29.37
2018-11-23T18:10:36.430Z,29.00
2018-11-23T18:13:06.975Z,31.40
2018-11-23T18:15:36.522Z,29.80
2018-11-23T18:18:06.183Z,29.63
2018-11-23T18:20:35.545Z,26.60
2018-11-23T18:23:04.960Z,28.10
2018-11-23T18:25:35.479Z,27.57
2018-11-23T18:28:04.195Z,26.57
2018-11-23T18:30:33.956Z,29.50
2018-11-23T18:33:04.150Z,26.63
2018-11-23T18:35:33.793Z,29.87
2018-11-23T18:38:02.612Z,25.73
2018-11-23T18:40:37.142Z,27.90
2018-11-23T18:42:59.971Z,25.53
2018-11-23T18:45:28.676Z,27.83
2018-11-23T18:47:57.554Z,26.77
2018-11-23T18:50:26.670Z,24.17
2018-11-23T18:52:55.202Z,26.27
2018-11-23T18:55:23.781Z,25.77
2018-11-23T18:57:53.304Z,26.70
2018-11-23T19:00:21.954Z,27.43
2018-11-23T19:02:54.280Z,24.70
2018-11-23T19:05:25.472Z,25.50
2018-11-23T19:07:54.332Z,27.00
2018-11-23T19:10:23.086Z,25.63
2018-11-23T19:12:52.610Z,23.67
2018-11-23T19:15:25.600Z,24.90
2018-11-23T19:17:52.912Z,24.53
2018-11-23T19:20:22.977Z,24.87
2018-11-23T19:22:53.048Z,26.00
2018-11-23T19:25:21.812Z,27.30
2018-11-23T19:27:51.705Z,25.60
2018-11-23T19:30:28.171Z,26.20
2018-11-23T19:32:50.966Z,24.07
2018-11-23T19:35:20.155Z,25.27
2018-11-23T19:37:51.102Z,24.33
2018-11-23T19:40:20.237Z,24.50
2018-11-23T19:42:48.915Z,23.30
2018-11-23T19:45:18.076Z,23.47
2018-11-23T19:47:48.887Z,26.20
2018-11-23T19:50:18.432Z,24.47
2018-11-23T19:52:48.292Z,24.03
2018-11-23T19:55:18.054Z,25.50
2018-11-23T19:57:48.057Z,24.60
2018-11-23T20:00:21.006Z,25.70
2018-11-23T20:02:51.405Z,28.10
2018-11-23T20:05:22.085Z,27.47
2018-11-23T20:07:58.562Z,26.20
2018-11-23T20:10:27.587Z,27.03
2018-11-23T20:12:58.221Z,26.90
2018-11-23T20:15:27.524Z,26.00
2018-11-23T20:17:56.331Z,28.60
2018-11-23T20:20:25.664Z,28.40
2018-11-23T20:22:54.735Z,26.90
2018-11-23T20:25:23.596Z,29.17
2018-11-23T20:27:54.354Z,27.90
2018-11-23T20:30:23.131Z,25.70
2018-11-23T20:32:52.169Z,26.07
2018-11-23T20:35:22.062Z,31.07
2018-11-23T20:37:51.478Z,25.43
2018-11-23T20:40:24.566Z,24.37
2018-11-23T20:42:53.363Z,26.10
2018-11-23T20:45:22.237Z,28.57
2018-11-23T20:47:55.509Z,23.90
2018-11-23T20:50:24.404Z,24.70
2018-11-23T20:52:53.053Z,23.47
2018-11-23T20:55:22.553Z,25.03
2018-11-23T20:57:52.808Z,23.40
2018-11-23T21:00:22.721Z,22.60
2018-11-23T21:02:52.346Z,23.73
2018-11-23T21:05:22.907Z,22.27
2018-11-23T21:07:51.804Z,21.60
2018-11-23T21:10:24.572Z,22.90
2018-11-23T21:12:53.586Z,22.83
2018-11-23T21:15:25.437Z,20.10
2018-11-23T21:17:56.118Z,20.90
2018-11-23T21:20:24.979Z,19.13
2018-11-23T21:22:57.012Z,23.57
2018-11-23T21:25:26.399Z,18.53
2018-11-23T21:27:56.993Z,18.73
2018-11-23T21:30:25.874Z,20.87
2018-11-23T21:32:55.900Z,18.80
2018-11-23T21:35:25.025Z,19.87
2018-11-23T21:37:53.829Z,21.07
2018-11-23T21:40:24.197Z,21.17
2018-11-23T21:42:52.801Z,17.73
2018-11-23T21:45:21.627Z,20.70
2018-11-23T21:47:50.949Z,19.30
2018-11-23T21:50:25.387Z,20.03
2018-11-23T21:52:51.984Z,20.00
2018-11-23T21:55:23.846Z,19.27
2018-11-23T21:57:54.009Z,20.23
2018-11-23T22:00:22.722Z,20.50
2018-11-23T22:02:51.442Z,18.70
2018-11-23T22:05:20.053Z,21.53
2018-11-23T22:07:48.990Z,19.10
2018-11-23T22:10:18.791Z,21.80
2018-11-23T22:12:47.491Z,21.93
2018-11-23T22:15:23.155Z,24.90
2018-11-23T22:17:55.010Z,23.17
2018-11-23T22:20:24.353Z,22.20
2018-11-23T22:22:54.347Z,22.93
2018-11-23T22:25:23.669Z,20.97
2018-11-23T22:27:52.395Z,24.47
2018-11-23T22:30:27.853Z,23.17
2018-11-23T22:32:56.428Z,21.00
2018-11-23T22:35:25.827Z,23.70
2018-11-23T22:37:56.189Z,23.83
2018-11-23T22:40:26.629Z,25.73
2018-11-23T22:42:57.484Z,25.23
2018-11-23T22:45:26.364Z,23.37
2018-11-23T22:47:56.630Z,22.97
2018-11-23T22:50:26.010Z,26.97
2018-11-23T22:52:55.547Z,25.07
2018-11-23T22:55:25.380Z,26.80
2018-11-23T22:57:54.498Z,26.10
2018-11-23T23:00:30.379Z,27.70
2018-11-23T23:03:00.542Z,29.10
2018-11-23T23:05:30.715Z,29.97
2018-11-23T23:08:01.054Z,23.97
2018-11-23T23:10:31.874Z,29.40
2018-11-23T23:13:01.893Z,27.60
2018-11-23T23:15:32.747Z,28.50
2018-11-23T23:18:03.280Z,26.20
2018-11-23T23:20:32.652Z,26.97
2018-11-23T23:23:03.051Z,26.87
2018-11-23T23:25:33.096Z,25.90
2018-11-23T23:28:03.498Z,29.90
2018-11-23T23:30:34.607Z,25.90
2018-11-23T23:33:04.367Z,29.60
2018-11-23T23:35:38.965Z,28.63
2018-11-23T23:38:12.063Z,29.63
2018-11-23T23:40:50.541Z,31.10
2018-11-23T23:43:32.214Z,26.40
2018-11-23T23:46:04.188Z,29.45
2018-11-23T23:48:33.449Z,29.00
2018-11-23T23:51:12.114Z,29.13
